Time,TemperatureF,DewpointF,PressureIn,WindDirection,WindDirectionDegrees,WindSpeedMPH,WindSpeedGustMPH,Humidity,HourlyPrecipIn,Conditions,Clouds,dailyrainin,SoftwareType,DateUTC
2013-10-04 00:41:00,73.5,72.0,30.03,ENE,72,0.0,0.0,94,0.00,,,0.00,weatherlink.com 1.10,2013-10-04 04:41:00,
2013-10-04 00:56:00,73.4,72.0,30.04,ENE,72,0.0,0.0,94,0.00,,,0.00,weatherlink.com 1.10,2013-10-04 04:56:00,
2013-10-04 01:11:00,73.1,72.0,30.04,ENE,72,0.0,0.0,95,0.00,,,0.00,weatherlink.com 1.10,2013-10-04 05:11:00,
2013-10-04 01:26:00,73.3,72.0,30.04,ENE,72,0.0,0.0,95,0.00,,,0.00,weatherlink.com 1.10,2013-10-04 05:26:00,
2013-10-04 01:41:00,72.8,71.0,30.03,ENE,72,0.0,0.0,95,0.00,,,0.00,weatherlink.com 1.10,2013-10-04 05:41:00,
2013-10-04 01:56:00,72.2,71.0,30.03,ENE,72,0.0,0.0,95,0.00,,,0.00,weatherlink.com 1.10,2013-10-04 05:56:00,
2013-10-04 02:11:00,72.7,71.0,30.03,ENE,72,0.0,0.0,95,0.00,,,0.00,weatherlink.com 1.10,2013-10-04 06:11:00,
2013-10-04 02:26:00,72.3,71.0,30.02,ENE,72,1.0,1.0,96,0.00,,,0.00,weatherlink.com 1.10,2013-10-04 06:26:00,
2013-10-04 02:41:00,72.8,72.0,30.02,ENE,72,1.0,1.0,96,0.00,,,0.00,weatherlink.com 1.10,2013-10-04 06:41:00,
2013-10-04 02:56:00,73.1,72.0,30.02,ENE,72,0.0,2.0,95,0.00,,,0.00,weatherlink.com 1.10,2013-10-04 06:56:00,
2013-10-04 03:26:00,73.2,72.0,30.01,ENE,72,1.0,3.0,95,0.00,,,0.00,weatherlink.com 1.10,2013-10-04 07:26:00,
2013-10-04 03:41:00,73.0,71.0,30.01,ENE,72,0.0,2.0,94,0.00,,,0.00,weatherlink.com 1.10,2013-10-04 07:41:00,
2013-10-04 03:56:00,73.0,71.0,30.01,ENE,72,0.0,1.0,94,0.00,,,0.00,weatherlink.com 1.10,2013-10-04 07:56:00,
2013-10-04 04:11:00,72.9,71.0,30.01,ENE,72,0.0,2.0,95,0.00,,,0.00,weatherlink.com 1.10,2013-10-04 08:11:00,
2013-10-04 04:26:00,72.1,71.0,30.01,ENE,72,0.0,0.0,95,0.00,,,0.00,weatherlink.com 1.10,2013-10-04 08:26:00,
2013-10-04 04:41:00,71.4,70.0,30.01,ENE,72,0.0,0.0,96,0.00,,,0.00,weatherlink.com 1.10,2013-10-04 08:41:00,
2013-10-04 04:56:00,72.0,71.0,30.00,ENE,72,1.0,2.0,96,0.00,,,0.00,weatherlink.com 1.10,2013-10-04 08:56:00,
2013-10-04 05:11:00,71.9,71.0,30.01,ENE,72,0.0,1.0,96,0.00,,,0.00,weatherlink.com 1.10,2013-10-04 09:11:00,
2013-10-04 05:26:00,72.0,71.0,30.01,ENE,72,0.0,0.0,96,0.00,,,0.00,weatherlink.com 1.10,2013-10-04 09:26:00,
2013-10-04 05:41:00,71.7,71.0,30.01,ENE,72,0.0,0.0,97,0.00,,,0.00,weatherlink.com 1.10,2013-10-04 09:41:00,
2013-10-04 05:56:00,71.3,70.0,30.01,ENE,72,0.0,0.0,97,0.00,,,0.00,weatherlink.com 1.10,2013-10-04 09:56:00,
2013-10-04 06:11:00,71.5,71.0,30.02,ENE,72,0.0,1.0,97,0.00,,,0.00,weatherlink.com 1.10,2013-10-04 10:11:00,
2013-10-04 06:26:00,71.4,71.0,30.02,ENE,72,0.0,0.0,97,0.00,,,0.00,weatherlink.com 1.10,2013-10-04 10:26:00,
2013-10-04 06:41:00,71.4,71.0,30.02,ENE,72,0.0,0.0,97,0.00,,,0.00,weatherlink.com 1.10,2013-10-04 10:41:00,
2013-10-04 06:56:00,71.5,71.0,30.02,ENE,72,0.0,1.0,97,0.00,,,0.00,weatherlink.com 1.10,2013-10-04 10:56:00,
2013-10-04 07:11:00,71.2,71.0,30.03,ENE,72,0.0,1.0,98,0.00,,,0.00,weatherlink.com 1.10,2013-10-04 11:11:00,
2013-10-04 07:26:00,71.4,71.0,30.03,ENE,72,0.0,2.0,98,0.00,,,0.00,weatherlink.com 1.10,2013-10-04 11:26:00,
2013-10-04 07:41:00,71.7,71.0,30.03,ENE,72,0.0,1.0,98,0.00,,,0.00,weatherlink.com 1.10,2013-10-04 11:41:00,
2013-10-04 07:56:00,72.1,72.0,30.04,ENE,72,0.0,2.0,98,0.00,,,0.00,weatherlink.com 1.10,2013-10-04 11:56:00,
2013-10-04 08:11:00,72.6,72.0,30.05,ENE,72,1.0,3.0,98,0.00,,,0.00,weatherlink.com 1.10,2013-10-04 12:11:00,
2013-10-04 08:26:00,73.2,73.0,30.05,ENE,72,1.0,2.0,98,0.00,,,0.00,weatherlink.com 1.10,2013-10-04 12:26:00,
2013-10-04 08:41:00,74.0,73.0,30.06,ENE,72,2.0,3.0,97,0.00,,,0.00,weatherlink.com 1.10,2013-10-04 12:41:00,
2013-10-04 08:56:00,74.7,74.0,30.06,ENE,72,2.0,2.0,97,0.00,,,0.00,weatherlink.com 1.10,2013-10-04 12:56:00,
2013-10-04 09:11:00,75.4,74.0,30.06,ENE,72,0.0,3.0,96,0.00,,,0.00,weatherlink.com 1.10,2013-10-04 13:11:00,
2013-10-04 09:26:00,76.0,74.0,30.07,NE,55,3.0,4.0,94,0.00,,,0.00,weatherlink.com 1.10,2013-10-04 13:26:00,
2013-10-04 09:42:00,76.7,75.0,30.07,ENE,59,2.0,3.0,93,0.00,,,0.00,weatherlink.com 1.10,2013-10-04 13:42:00,
2013-10-04 09:57:00,77.2,75.0,30.07,ENE,57,1.0,4.0,92,0.00,,,0.00,weatherlink.com 1.10,2013-10-04 13:57:00,
2013-10-04 10:12:00,78.1,75.0,30.07,NE,51,2.0,3.0,90,0.00,,,0.00,weatherlink.com 1.10,2013-10-04 14:12:00,
2013-10-04 10:27:00,79.0,75.0,30.07,NE,48,1.0,5.0,88,0.00,,,0.00,weatherlink.com 1.10,2013-10-04 14:27:00,
2013-10-04 10:42:00,80.0,76.0,30.07,NE,41,1.0,5.0,86,0.00,,,0.00,weatherlink.com 1.10,2013-10-04 14:42:00,
2013-10-04 10:57:00,81.2,76.0,30.08,NE,43,0.0,5.0,83,0.00,,,0.00,weatherlink.com 1.10,2013-10-04 14:57:00,
2013-10-04 11:12:00,83.2,76.0,30.08,NE,56,2.0,5.0,79,0.00,,,0.00,weatherlink.com 1.10,2013-10-04 15:12:00,
2013-10-04 11:27:00,84.0,76.0,30.08,ENE,59,1.0,6.0,77,0.00,,,0.00,weatherlink.com 1.10,2013-10-04 15:27:00,
2013-10-04 11:42:00,82.5,74.0,30.07,NE,34,4.0,5.0,75,0.00,,,0.00,weatherlink.com 1.10,2013-10-04 15:42:00,
2013-10-04 11:57:00,82.9,74.0,30.07,ENE,76,4.0,6.0,74,0.00,,,0.00,weatherlink.com 1.10,2013-10-04 15:57:00,
2013-10-04 12:12:00,83.7,74.0,30.07,NE,49,4.0,6.0,72,0.00,,,0.00,weatherlink.com 1.10,2013-10-04 16:12:00,
2013-10-04 12:27:00,85.1,74.0,30.06,NE,40,1.0,6.0,70,0.00,,,0.00,weatherlink.com 1.10,2013-10-04 16:27:00,
2013-10-04 12:42:00,85.9,75.0,30.05,NE,55,0.0,6.0,70,0.00,,,0.00,weatherlink.com 1.10,2013-10-04 16:42:00,
2013-10-04 12:57:00,86.4,73.0,30.05,NE,54,2.0,5.0,65,0.00,,,0.00,weatherlink.com 1.10,2013-10-04 16:57:00,
2013-10-04 13:12:00,85.1,71.0,30.04,NE,53,4.0,8.0,63,0.00,,,0.00,weatherlink.com 1.10,2013-10-04 17:12:00,
2013-10-04 13:27:00,86.8,72.0,30.03,ENE,73,0.0,7.0,62,0.00,,,0.00,weatherlink.com 1.10,2013-10-04 17:27:00,
2013-10-04 14:12:00,87.4,71.0,30.01,ENE,69,2.0,5.0,59,0.00,,,0.00,weatherlink.com 1.10,2013-10-04 18:12:00,
2013-10-04 14:27:00,86.1,71.0,30.01,ENE,64,0.0,7.0,61,0.00,,,0.00,weatherlink.com 1.10,2013-10-04 18:27:00,
2013-10-04 14:42:00,87.7,71.0,30.00,ENE,60,2.0,6.0,57,0.00,,,0.00,weatherlink.com 1.10,2013-10-04 18:42:00,
2013-10-04 14:57:00,87.3,71.0,30.00,NE,52,4.0,9.0,58,0.00,,,0.00,weatherlink.com 1.10,2013-10-04 18:57:00,
2013-10-04 15:12:00,86.9,72.0,30.00,NE,52,0.0,5.0,62,0.00,,,0.00,weatherlink.com 1.10,2013-10-04 19:12:00,
2013-10-04 15:27:00,87.7,73.0,29.99,NE,44,1.0,5.0,62,0.00,,,0.00,weatherlink.com 1.10,2013-10-04 19:27:00,
2013-10-04 15:42:00,86.3,72.0,29.99,East,95,2.0,3.0,63,0.00,,,0.00,weatherlink.com 1.10,2013-10-04 19:42:00,
2013-10-04 15:57:00,87.9,72.0,29.99,NNE,15,6.0,6.0,59,0.00,,,0.00,weatherlink.com 1.10,2013-10-04 19:57:00,
2013-10-04 16:12:00,86.6,72.0,29.98,NNE,22,2.0,3.0,61,0.00,,,0.00,weatherlink.com 1.10,2013-10-04 20:12:00,
2013-10-04 16:27:00,88.6,72.0,29.98,NE,39,2.0,5.0,58,0.00,,,0.00,weatherlink.com 1.10,2013-10-04 20:27:00,
2013-10-04 16:42:00,85.6,72.0,29.98,ENE,59,0.0,3.0,63,0.00,,,0.00,weatherlink.com 1.10,2013-10-04 20:42:00,
2013-10-04 16:57:00,87.5,71.0,29.98,South,182,0.0,3.0,58,0.00,,,0.00,weatherlink.com 1.10,2013-10-04 20:57:00,
2013-10-04 17:12:00,87.6,70.0,29.98,ENE,57,3.0,7.0,57,0.00,,,0.00,weatherlink.com 1.10,2013-10-04 21:12:00,
2013-10-04 17:27:00,87.8,71.0,29.98,NNE,29,0.0,4.0,57,0.00,,,0.00,weatherlink.com 1.10,2013-10-04 21:27:00,
2013-10-04 17:42:00,87.2,72.0,29.98,NE,38,3.0,3.0,61,0.00,,,0.00,weatherlink.com 1.10,2013-10-04 21:42:00,
2013-10-04 17:57:00,85.5,72.0,29.98,NE,41,0.0,4.0,64,0.00,,,0.00,weatherlink.com 1.10,2013-10-04 21:57:00,
2013-10-04 18:12:00,84.9,72.0,29.98,NE,41,0.0,1.0,66,0.00,,,0.00,weatherlink.com 1.10,2013-10-04 22:12:00,
2013-10-04 18:27:00,84.4,72.0,29.99,NE,46,0.0,3.0,66,0.00,,,0.00,weatherlink.com 1.10,2013-10-04 22:27:00,
2013-10-04 18:42:00,83.4,72.0,29.98,NE,46,0.0,3.0,69,0.00,,,0.00,weatherlink.com 1.10,2013-10-04 22:42:00,
2013-10-04 18:58:00,82.8,72.0,29.99,ENE,72,3.0,4.0,69,0.00,,,0.00,weatherlink.com 1.10,2013-10-04 22:58:00,
2013-10-04 19:13:00,82.2,72.0,29.99,ENE,63,1.0,7.0,71,0.00,,,0.00,weatherlink.com 1.10,2013-10-04 23:13:00,
2013-10-04 19:28:00,81.4,72.0,29.99,ENE,74,1.0,5.0,73,0.00,,,0.00,weatherlink.com 1.10,2013-10-04 23:28:00,
2013-10-04 19:43:00,80.8,72.0,30.00,ENE,65,2.0,3.0,75,0.00,,,0.00,weatherlink.com 1.10,2013-10-04 23:43:00,
2013-10-04 19:58:00,80.2,72.0,30.00,ENE,58,4.0,4.0,77,0.00,,,0.00,weatherlink.com 1.10,2013-10-04 23:58:00,
2013-10-04 20:13:00,80.1,72.0,30.00,NE,45,2.0,8.0,76,0.00,,,0.00,weatherlink.com 1.10,2013-10-05 00:13:00,
2013-10-04 20:28:00,79.7,72.0,30.01,ENE,59,0.0,4.0,77,0.00,,,0.00,weatherlink.com 1.10,2013-10-05 00:28:00,
2013-10-04 20:43:00,79.2,72.0,30.02,ENE,67,3.0,5.0,78,0.00,,,0.00,weatherlink.com 1.10,2013-10-05 00:43:00,
2013-10-04 20:58:00,78.8,72.0,30.02,ENE,62,2.0,4.0,79,0.00,,,0.00,weatherlink.com 1.10,2013-10-05 00:58:00,
2013-10-04 21:13:00,78.5,72.0,30.03,ENE,59,1.0,6.0,80,0.00,,,0.00,weatherlink.com 1.10,2013-10-05 01:13:00,
2013-10-04 21:28:00,78.2,72.0,30.04,ENE,69,0.0,4.0,80,0.00,,,0.00,weatherlink.com 1.10,2013-10-05 01:28:00,
2013-10-04 21:43:00,77.7,72.0,30.04,East,86,2.0,5.0,82,0.00,,,0.00,weatherlink.com 1.10,2013-10-05 01:43:00,
2013-10-04 21:58:00,77.4,72.0,30.04,NE,50,4.0,6.0,83,0.00,,,0.00,weatherlink.com 1.10,2013-10-05 01:58:00,
2013-10-04 22:13:00,77.1,72.0,30.05,East,81,1.0,6.0,83,0.00,,,0.00,weatherlink.com 1.10,2013-10-05 02:13:00,
2013-10-04 22:28:00,76.6,72.0,30.05,ENE,67,3.0,5.0,85,0.00,,,0.00,weatherlink.com 1.10,2013-10-05 02:28:00,
2013-10-04 22:43:00,76.1,72.0,30.05,ENE,60,1.0,3.0,86,0.00,,,0.00,weatherlink.com 1.10,2013-10-05 02:43:00,
2013-10-04 22:58:00,75.8,72.0,30.05,ENE,61,0.0,4.0,87,0.00,,,0.00,weatherlink.com 1.10,2013-10-05 02:58:00,
2013-10-04 23:13:00,75.3,72.0,30.05,ENE,62,0.0,2.0,88,0.00,,,0.00,weatherlink.com 1.10,2013-10-05 03:13:00,
2013-10-04 23:28:00,75.0,72.0,30.05,ENE,62,0.0,0.0,89,0.00,,,0.00,weatherlink.com 1.10,2013-10-05 03:28:00,
2013-10-04 23:43:00,74.6,71.0,30.05,ENE,62,0.0,0.0,89,0.00,,,0.00,weatherlink.com 1.10,2013-10-05 03:43:00,
2013-10-04 23:58:00,73.9,71.0,30.05,ENE,62,0.0,1.0,90,0.00,,,0.00,weatherlink.com 1.10,2013-10-05 03:58:00,